Main page
METAR-TAF:

METAR-TAF

Airports :

C. David Campbell Field

Corsicana, Texas, United States

latitude: 32-01-52N, longitude: 096-23-56W, elevation: 446 ft

Current weather observation

The report was made 22 minutes ago, at 17:54 UTC
Wind 8 mph from the South
Temperature 91°F
Humidity 49%
Pressure 29.95 in. Hg
Visibility: 10 miles
Few clouds at a height of 4500 ft
Scattered clouds at a height of 5000 ft

METAR: KCRS 151754Z AUTO 18007KT 10SM FEW045 SCT050 33/21 A2995 RMK AO2 SLP135 T03280206 10328 20233 $

Time: 13:16 (18:16 UTC)


TAF: missing

Weather observations and forecasts of more than 4000 airports (METAR and TAF reports).

The available stations are represented by yellow and red dots on the map.

Hover mouse over dot to see the name of the station.

Then click to see weather observations and forecasts.

To change the map : click on the green buttons with a black cross to zoom in, on the green button with a dash to zoom out, or on the green arrows for adjacent maps.


METAR-TAF: